EGNREGNX

Guest
Details From EGNR - Hawarden
To EGNX - East Midlands
Flight Number -
Tags generated
Created
Modified
Stats Distance 63 nm / 117 km
Max Altitude 7,100 ft / 2,164 m
Waypoints 3
Social Downloads 0
Likes 0
Share VATSIM

Download

Looking for another format? Having issues loading an existing format? Contact us
Advertisement - Login to hide

Notes

Basic altitude profile: - Ascent Rate: 500ft/min - Ascent Speed: 74kts - Cruise Altitude: 6000ft - Cruise Speed: 100kts - Descent Rate: 500ft/min - Descent Speed: 80kts Options: - Use NATs: yes - Use PACOTS: yes - Use low airways: yes - Use high airways: no

Route

EGNR WAL41 EGNX

ID Type Via Altitude Latitude Longitude Leg Dist Tot Dist Heading (true) Name
O EGNR APT - 0 ft / 0 m 53.17813˚ -2.97766˚ - 0 nm - Hawarden
WAL41 FIX - 7,100 ft / 2,164 m 52.97583˚ -2.21306˚ 30 nm 30 nm 113° / 114° -
O EGNX APT - 0 ft / 0 m 52.83100˚ -1.32815˚ 33 nm 63 nm 105° / 106° East Midlands

Altitude Profile

Advertisement - Login to hide

EGNR

Details ICAO EGNR (CEG)
Name Hawarden
Region United Kingdom
Timezone Europe/London (UTC+0.0)
Stats Elevation 45 ft / 14 m (AMSL)
Location 53.178130° -2.977664°
Runways 1
Magnetic Variation 1.701° W

METAR

EGNR 121820Z 16011KT CAVOK 02/00 Q1003

Decode

TAF

Not found

Departure Runways

ID Width Length Bearing (true) Bearing (mag) Surface Threshold Offset Overrun Length
05 148 ft / 45 m 6,680 ft / 2,036 m 40.93° 42.63° Asphalt 984 ft / 300 m 0 ft / 0 m
23 148 ft / 45 m 6,680 ft / 2,036 m 220.94° 222.64° Asphalt 984 ft / 300 m 0 ft / 0 m

EGNX

Details ICAO EGNX (EMA)
Name East Midlands
Region United Kingdom
Timezone Europe/London (UTC+0.0)
Stats Elevation 306 ft / 93 m (AMSL)
Location 52.830999° -1.328155°
Runways 1
Magnetic Variation 1.035° W

METAR

EGNX 121820Z 20013KT CAVOK 01/M00 Q1005

Decode

TAF

TAF EGNX 121704Z 1218/1318 18003KT 9999 FEW035 TEMPO 1218/1220 6000 -RA BKN007 TEMPO 1219/1301 22017G27KT BECMG 1221/1224 20013KT 4000 RADZ BR BKN004 PROB30 TEMPO 1223/1305 0300 FZFG BKN001 BECMG 1305/1308 9999 NSW SCT030 TEMPO 1309/1316 7000 SHRA BKN009 PROB30 TEMPO 1311/1313 23017G35KT 4000 +SHRA BKN004 BECMG 1313/1316 26013KT

Decode

Destination Runways

ID Width Length Bearing (true) Bearing (mag) Surface Threshold Offset Overrun Length
09 151 ft / 46 m 9,462 ft / 2,884 m 88.25° 89.28° Asphalt 587 ft / 179 m 92 ft / 28 m
27 151 ft / 46 m 9,462 ft / 2,884 m 268.29° 269.32° Asphalt 423 ft / 129 m 98 ft / 30 m

Approach Navaids

Runway Type Ident Frequency Range Bearing (true) Bearing (mag) Slope Elevation
09 Localiser IEMW 109.35 MHz 18 nm / 33 km 88.30° 89.33° - 306 ft / 93 m (AMSL)
09 Glidescope IEMW 109.35 MHz 10 nm / 19 km 88.27° 89.31° 3.00° 306 ft / 93 m (AMSL)
09 DME IEMW 109.35 MHz 18 nm / 33 km - - - 322 ft / 98 m (AMSL)
27 Localiser IEME 109.35 MHz 18 nm / 33 km 268.25° 269.28° - 306 ft / 93 m (AMSL)
27 Glidescope IEME 109.35 MHz 10 nm / 19 km 268.27° 269.31° 3.00° 306 ft / 93 m (AMSL)
27 DME IEME 109.35 MHz 18 nm / 33 km - - - 322 ft / 98 m (AMSL)